»·PEaware :: N5083S KPRC-KFLG

N5083S :: KPRC-KFLG

FLIGHT INFORMATION

Flight Status: Arrived
Operator: Privately registered:
United States
More flights under this callsign
Pilot: Elmar V. (17985)
Aircraft: BEECH AIRCRAFT BARON
(BE58)
More flights by this aircraft type
Origin: KPRC Love
United States
Destination: KFLG Flagstaff Pulliam
United States
More flights between these airports :: More routes between these airports
Route: +PRC1 DRK V12 OATES V327 FLG
File this flight plan on PilotEdge
Remarks:
Altitude:
(Current/Filed)
11,000ft
Speed:
(Current/Filed)
150kts
Departed: 07-Dec-18 08:44 AM
Arrived: 07-Dec-18 09:22 AM
Distance/Time
Traveled:
47nm/0:38
Distance/Time
To Go:
Arrived

Flight Plot

Page will automatically refresh every two minutes.

Flight plan parsing failed; only flown route is shown


Map Options




Map Legend


Flown Route
Filed Route
Departure Airport
Arrival Airport
Navaid (VOR, NDB)
Fix

Horizontal Profiles

Position Reports

Time Latitude Longitude Heading Altitude Ground
Speed
07-Dec-18 08:29 34.646714 -112.424193 308 5042ft 0kts
07-Dec-18 08:30 34.646714 -112.424193 308 5042ft 0kts
07-Dec-18 08:31 34.646714 -112.424193 308 5042ft 0kts
07-Dec-18 08:32 34.646714 -112.424193 308 5042ft 0kts
07-Dec-18 08:33 34.646714 -112.424193 308 5042ft 0kts
07-Dec-18 08:34 34.646714 -112.424193 308 5042ft 0kts
07-Dec-18 08:35 34.646714 -112.424193 308 5042ft 0kts
07-Dec-18 08:36 34.646714 -112.424193 308 5042ft 0kts
07-Dec-18 08:37 34.646714 -112.424193 308 5042ft 0kts
07-Dec-18 08:38 34.648440 -112.424124 41 5042ft 21kts
07-Dec-18 08:39 34.654197 -112.418065 37 5042ft 24kts
07-Dec-18 08:40 34.658801 -112.412479 45 5042ft 22kts
07-Dec-18 08:41 34.661104 -112.410156 352 5042ft 0kts
07-Dec-18 08:42 34.661104 -112.410156 352 5042ft 0kts
07-Dec-18 08:42 34.661107 -112.410157 352 5042ft 0kts
07-Dec-18 08:43 34.655342 -112.418557 219 5067ft 109kts
07-Dec-18 08:44 34.633037 -112.441006 213 6579ft 105kts
07-Dec-18 08:45 34.620804 -112.469807 305 7888ft 123kts
07-Dec-18 08:46 34.653398 -112.479915 0 9069ft 130kts
07-Dec-18 08:48 34.696121 -112.476038 34 10156ft 141kts
07-Dec-18 08:48 34.711433 -112.445186 87 10859ft 141kts
07-Dec-18 08:49 34.722081 -112.394254 75 10976ft 173kts
07-Dec-18 08:50 34.735696 -112.336978 80 11101ft 174kts
07-Dec-18 08:51 34.748410 -112.278992 79 11089ft 180kts
07-Dec-18 08:52 34.760700 -112.218585 80 10942ft 184kts
07-Dec-18 08:53 34.773489 -112.158948 77 10987ft 178kts
07-Dec-18 08:54 34.786061 -112.100378 79 11021ft 178kts
07-Dec-18 08:55 34.798765 -112.041801 76 11030ft 180kts
07-Dec-18 08:56 34.811588 -111.983126 77 11043ft 178kts
07-Dec-18 08:57 34.824375 -111.924803 77 11022ft 179kts
07-Dec-18 08:58 34.836546 -111.867147 77 11372ft 159kts
07-Dec-18 08:59 34.849599 -111.818370 74 12093ft 152kts
07-Dec-18 09:00 34.860453 -111.768747 82 12736ft 147kts
07-Dec-18 09:01 34.873386 -111.720079 41 12986ft 170kts
07-Dec-18 09:02 34.919371 -111.701906 2 12927ft 184kts
07-Dec-18 09:03 34.970423 -111.694687 5 12954ft 180kts
07-Dec-18 09:04 35.020391 -111.687552 2 12938ft 184kts
07-Dec-18 09:05 35.070531 -111.683975 1 13018ft 180kts
07-Dec-18 09:06 35.120270 -111.678817 4 13002ft 183kts
07-Dec-18 09:07 35.164463 -111.653453 35 12871ft 189kts
07-Dec-18 09:08 35.199964 -111.610298 42 13024ft 180kts
07-Dec-18 09:09 35.232992 -111.563935 48 12993ft 183kts
07-Dec-18 09:10 35.270915 -111.522671 41 12998ft 183kts
07-Dec-18 09:11 35.307585 -111.479818 47 13045ft 180kts
07-Dec-18 09:12 35.319861 -111.423585 94 12991ft 178kts
07-Dec-18 09:13 35.345812 -111.386346 345 13075ft 178kts
07-Dec-18 09:14 35.343300 -111.426330 221 12929ft 168kts
07-Dec-18 09:15 35.307580 -111.463789 211 12352ft 173kts
07-Dec-18 09:16 35.269778 -111.505493 223 11025ft 194kts
07-Dec-18 09:17 35.234163 -111.553376 222 9588ft 181kts
07-Dec-18 09:18 35.200783 -111.594391 228 8693ft 153kts
07-Dec-18 09:19 35.176347 -111.624859 217 7932ft 119kts
07-Dec-18 09:20 35.153324 -111.653596 219 7285ft 114kts
07-Dec-18 09:21 35.144919 -111.664200 228 7012ft 0kts

Navigation Log

Ident Type
Flight plan parsing failed, navigation log unavailable